BAW2157 TAPA-TKPK
Flight info
| Callsign | BAW2157 |
|---|---|
| Flight time | 0h 18m |
| Altitude | 10000 |
| Route | ANU G633 SKB |
| Aircraft | B772/H-SDE2E3FGHIJ5LORVWXY/LB1D1 |
Departure
| Time | 2026-04-30 01:21 |
|---|---|
| Airport | V. C. Bird International Airport (TAPA) |
Arrival
| Time | 2026-04-30 01:40 |
|---|---|
| Airport | Robert L. Bradshaw International Airport (TKPK) |
| Time | Latitude | Longitude | Altitude | Speed | Heading |
|---|---|---|---|---|---|
| 2026-04-30 00:57 | 17.14171 | -61.78927 | 59 ft | 0 kts | 282° |
| 2026-04-30 01:11 | 17.14169 | -61.78918 | 68 ft | 3 kts | 284° |
| 2026-04-30 01:12 | 17.14159 | -61.78893 | 64 ft | 4 kts | 308° |
| 2026-04-30 01:12 | 17.14140 | -61.78873 | 58 ft | 4 kts | 320° |
| 2026-04-30 01:12 | 17.14124 | -61.78860 | 58 ft | 4 kts | 315° |
| 2026-04-30 01:12 | 17.14112 | -61.78842 | 58 ft | 4 kts | 286° |
| 2026-04-30 01:13 | 17.14109 | -61.78816 | 60 ft | 2 kts | 275° |
| 2026-04-30 01:13 | 17.14109 | -61.78814 | 60 ft | 1 kts | 275° |
| 2026-04-30 01:15 | 17.14109 | -61.78824 | 59 ft | 10 kts | 270° |
| 2026-04-30 01:15 | 17.14076 | -61.78909 | 61 ft | 13 kts | 238° |
| 2026-04-30 01:16 | 17.14031 | -61.78990 | 61 ft | 13 kts | 240° |
| 2026-04-30 01:16 | 17.13983 | -61.79070 | 61 ft | 13 kts | 237° |
| 2026-04-30 01:16 | 17.13912 | -61.79123 | 61 ft | 13 kts | 195° |
| 2026-04-30 01:16 | 17.13829 | -61.79100 | 65 ft | 13 kts | 149° |
| 2026-04-30 01:17 | 17.13759 | -61.79125 | 66 ft | 14 kts | 234° |
| 2026-04-30 01:17 | 17.13702 | -61.79216 | 63 ft | 15 kts | 238° |
| 2026-04-30 01:17 | 17.13649 | -61.79307 | 67 ft | 15 kts | 238° |
| 2026-04-30 01:17 | 17.13594 | -61.79401 | 67 ft | 16 kts | 238° |
| 2026-04-30 01:18 | 17.13537 | -61.79498 | 64 ft | 16 kts | 238° |
| 2026-04-30 01:18 | 17.13480 | -61.79595 | 65 ft | 16 kts | 238° |
| 2026-04-30 01:18 | 17.13423 | -61.79691 | 64 ft | 16 kts | 238° |
| 2026-04-30 01:18 | 17.13362 | -61.79795 | 65 ft | 19 kts | 238° |
| 2026-04-30 01:19 | 17.13294 | -61.79911 | 64 ft | 19 kts | 238° |
| 2026-04-30 01:19 | 17.13225 | -61.80026 | 62 ft | 19 kts | 238° |
| 2026-04-30 01:19 | 17.13157 | -61.80142 | 68 ft | 19 kts | 239° |
| 2026-04-30 01:19 | 17.13090 | -61.80258 | 62 ft | 19 kts | 238° |
| 2026-04-30 01:20 | 17.13022 | -61.80374 | 66 ft | 19 kts | 238° |
| 2026-04-30 01:20 | 17.12941 | -61.80477 | 67 ft | 19 kts | 208° |
| 2026-04-30 01:20 | 17.12857 | -61.80546 | 69 ft | 5 kts | 239° |
| 2026-04-30 01:20 | 17.12873 | -61.80567 | 74 ft | 10 kts | 328° |
| 2026-04-30 01:21 | 17.12932 | -61.80524 | 68 ft | 17 kts | 57° |
| 2026-04-30 01:21 | 17.13123 | -61.80201 | 65 ft | 96 kts | 58° |
| 2026-04-30 01:21 | 17.13623 | -61.79372 | 201 ft | 161 kts | 56° |
| 2026-04-30 01:21 | 17.14328 | -61.78465 | 1095 ft | 166 kts | 38° |
| 2026-04-30 01:22 | 17.15508 | -61.78079 | 1882 ft | 195 kts | 8° |
| 2026-04-30 01:22 | 17.16864 | -61.78352 | 2851 ft | 202 kts | 337° |
| 2026-04-30 01:22 | 17.18167 | -61.79017 | 3453 ft | 220 kts | 328° |
| 2026-04-30 01:22 | 17.19193 | -61.80336 | 3744 ft | 256 kts | 289° |
| 2026-04-30 01:23 | 17.19343 | -61.82256 | 4267 ft | 273 kts | 264° |
| 2026-04-30 01:23 | 17.19164 | -61.84237 | 5158 ft | 282 kts | 265° |
| 2026-04-30 01:23 | 17.19053 | -61.86316 | 6333 ft | 283 kts | 267° |
| 2026-04-30 01:23 | 17.19007 | -61.88363 | 7348 ft | 287 kts | 269° |
| 2026-04-30 01:24 | 17.19008 | -61.90474 | 8315 ft | 293 kts | 271° |
| 2026-04-30 01:24 | 17.19045 | -61.92607 | 9417 ft | 293 kts | 272° |
| 2026-04-30 01:24 | 17.19107 | -61.94768 | 10326 ft | 301 kts | 273° |
| 2026-04-30 01:24 | 17.19188 | -61.97040 | 10839 ft | 325 kts | 273° |
| 2026-04-30 01:25 | 17.19285 | -61.99442 | 11661 ft | 335 kts | 273° |
| 2026-04-30 01:25 | 17.19389 | -62.01881 | 12663 ft | 333 kts | 272° |
| 2026-04-30 01:25 | 17.19492 | -62.04262 | 13479 ft | 332 kts | 272° |
| 2026-04-30 01:25 | 17.19600 | -62.06704 | 13961 ft | 338 kts | 272° |
| 2026-04-30 01:26 | 17.19709 | -62.09140 | 13988 ft | 332 kts | 272° |
| 2026-04-30 01:26 | 17.19818 | -62.11563 | 14002 ft | 336 kts | 272° |
| 2026-04-30 01:26 | 17.19927 | -62.14012 | 14007 ft | 338 kts | 272° |
| 2026-04-30 01:26 | 17.20038 | -62.16482 | 14001 ft | 339 kts | 272° |
| 2026-04-30 01:27 | 17.20146 | -62.18921 | 13992 ft | 339 kts | 272° |
| 2026-04-30 01:27 | 17.20255 | -62.21386 | 13989 ft | 340 kts | 272° |
| 2026-04-30 01:27 | 17.20278 | -62.23850 | 13997 ft | 337 kts | 265° |
| 2026-04-30 01:27 | 17.19994 | -62.26276 | 14004 ft | 336 kts | 260° |
| 2026-04-30 01:28 | 17.19595 | -62.28672 | 13993 ft | 330 kts | 259° |
| 2026-04-30 01:28 | 17.19190 | -62.30999 | 13793 ft | 323 kts | 259° |
| 2026-04-30 01:28 | 17.18798 | -62.33305 | 13431 ft | 320 kts | 259° |
| 2026-04-30 01:28 | 17.18422 | -62.35592 | 13033 ft | 318 kts | 260° |
| 2026-04-30 01:29 | 17.18060 | -62.37869 | 12616 ft | 317 kts | 261° |
| 2026-04-30 01:29 | 17.17704 | -62.40146 | 12199 ft | 316 kts | 261° |
| 2026-04-30 01:29 | 17.17355 | -62.42416 | 11780 ft | 316 kts | 261° |
| 2026-04-30 01:29 | 17.17011 | -62.44661 | 11365 ft | 315 kts | 262° |
| 2026-04-30 01:30 | 17.16666 | -62.46927 | 10942 ft | 315 kts | 261° |
| 2026-04-30 01:30 | 17.16322 | -62.49189 | 10525 ft | 315 kts | 262° |
| 2026-04-30 01:30 | 17.15979 | -62.51448 | 10229 ft | 311 kts | 262° |
| 2026-04-30 01:30 | 17.15647 | -62.53626 | 10074 ft | 302 kts | 262° |
| 2026-04-30 01:31 | 17.15320 | -62.55775 | 9792 ft | 299 kts | 262° |
| 2026-04-30 01:31 | 17.14994 | -62.57921 | 9400 ft | 299 kts | 262° |
| 2026-04-30 01:31 | 17.14668 | -62.60066 | 9007 ft | 297 kts | 262° |
| 2026-04-30 01:31 | 17.14343 | -62.62201 | 8665 ft | 296 kts | 261° |
| 2026-04-30 01:32 | 17.14019 | -62.64327 | 8284 ft | 295 kts | 261° |
| 2026-04-30 01:32 | 17.13697 | -62.66436 | 7927 ft | 295 kts | 261° |
| 2026-04-30 01:32 | 17.13373 | -62.68556 | 7570 ft | 295 kts | 261° |
| 2026-04-30 01:32 | 17.13049 | -62.70674 | 7183 ft | 289 kts | 261° |
| 2026-04-30 01:33 | 17.12737 | -62.72709 | 6850 ft | 283 kts | 261° |
| 2026-04-30 01:33 | 17.12428 | -62.74724 | 6517 ft | 284 kts | 260° |
| 2026-04-30 01:33 | 17.12113 | -62.76778 | 6159 ft | 286 kts | 260° |
| 2026-04-30 01:33 | 17.11797 | -62.78834 | 5800 ft | 286 kts | 259° |
| 2026-04-30 01:34 | 17.11483 | -62.80880 | 5459 ft | 283 kts | 260° |
| 2026-04-30 01:34 | 17.11232 | -62.82874 | 5105 ft | 275 kts | 269° |
| 2026-04-30 01:34 | 17.11686 | -62.84799 | 4766 ft | 274 kts | 300° |
| 2026-04-30 01:34 | 17.12917 | -62.86277 | 4433 ft | 271 kts | 323° |
| 2026-04-30 01:35 | 17.14480 | -62.87373 | 4108 ft | 268 kts | 329° |
| 2026-04-30 01:35 | 17.16017 | -62.88416 | 3952 ft | 261 kts | 329° |
| 2026-04-30 01:35 | 17.17615 | -62.89159 | 3790 ft | 242 kts | 354° |
| 2026-04-30 01:35 | 17.19209 | -62.88983 | 3704 ft | 226 kts | 24° |
| 2026-04-30 01:36 | 17.20531 | -62.88220 | 3629 ft | 213 kts | 40° |
| 2026-04-30 01:36 | 17.21509 | -62.87133 | 3523 ft | 198 kts | 57° |
| 2026-04-30 01:36 | 17.22257 | -62.85962 | 3410 ft | 190 kts | 58° |
| 2026-04-30 01:36 | 17.22967 | -62.84824 | 3241 ft | 184 kts | 58° |
| 2026-04-30 01:37 | 17.23668 | -62.83704 | 2979 ft | 183 kts | 58° |
| 2026-04-30 01:37 | 17.24351 | -62.82604 | 2719 ft | 182 kts | 58° |
| 2026-04-30 01:37 | 17.25057 | -62.81480 | 2437 ft | 183 kts | 58° |
| 2026-04-30 01:37 | 17.25760 | -62.80361 | 2162 ft | 184 kts | 58° |
| 2026-04-30 01:38 | 17.26448 | -62.79267 | 1878 ft | 176 kts | 57° |
| 2026-04-30 01:38 | 17.27093 | -62.78245 | 1635 ft | 162 kts | 58° |
| 2026-04-30 01:38 | 17.27695 | -62.77293 | 1369 ft | 150 kts | 58° |
| 2026-04-30 01:38 | 17.28281 | -62.76442 | 1072 ft | 137 kts | 55° |
| 2026-04-30 01:39 | 17.28786 | -62.75656 | 903 ft | 122 kts | 58° |
| 2026-04-30 01:39 | 17.29226 | -62.74893 | 751 ft | 123 kts | 55° |
| 2026-04-30 01:39 | 17.29689 | -62.74131 | 582 ft | 128 kts | 51° |
| 2026-04-30 01:39 | 17.30198 | -62.73318 | 377 ft | 134 kts | 54° |
| 2026-04-30 01:40 | 17.30693 | -62.72540 | 206 ft | 126 kts | 51° |
| 2026-04-30 01:40 | 17.31120 | -62.71870 | 178 ft | 89 kts | 57° |
| 2026-04-30 01:40 | 17.31359 | -62.71493 | 172 ft | 26 kts | 56° |
| 2026-04-30 01:40 | 17.31419 | -62.71417 | 172 ft | 8 kts | 50° |
| 2026-04-30 01:41 | 17.31421 | -62.71376 | 172 ft | 6 kts | 120° |
| 2026-04-30 01:41 | 17.31383 | -62.71376 | 171 ft | 7 kts | 211° |
| 2026-04-30 01:41 | 17.31341 | -62.71404 | 168 ft | 8 kts | 212° |
| 2026-04-30 01:41 | 17.31282 | -62.71443 | 165 ft | 12 kts | 212° |
| 2026-04-30 01:42 | 17.31232 | -62.71483 | 165 ft | 9 kts | 227° |
| 2026-04-30 01:42 | 17.31193 | -62.71539 | 165 ft | 10 kts | 236° |
| 2026-04-30 01:42 | 17.31153 | -62.71601 | 165 ft | 9 kts | 233° |
| 2026-04-30 01:42 | 17.31094 | -62.71603 | 164 ft | 9 kts | 146° |
| 2026-04-30 01:43 | 17.31047 | -62.71571 | 164 ft | 0 kts | 147° |